sensor_id;sensor_type;location;lat;lon;timestamp;pressure;altitude;pressure_sealevel;temperature;humidity
35918;BME280;22011;59.912;30.300;2022-07-23T00:01:01;101233.66;;;22.76;62.75
35918;BME280;22011;59.912;30.300;2022-07-23T00:03:29;101238.50;;;22.74;62.56
35918;BME280;22011;59.912;30.300;2022-07-23T00:05:58;101240.16;;;22.75;62.81
35918;BME280;22011;59.912;30.300;2022-07-23T00:08:26;101239.19;;;22.69;62.94
35918;BME280;22011;59.912;30.300;2022-07-23T00:10:54;101243.22;;;22.67;62.75
35918;BME280;22011;59.912;30.300;2022-07-23T00:13:21;101240.97;;;22.64;62.97
35918;BME280;22011;59.912;30.300;2022-07-23T00:15:49;101251.22;;;22.62;63.19
35918;BME280;22011;59.912;30.300;2022-07-23T00:18:16;101241.66;;;22.59;63.29
35918;BME280;22011;59.912;30.300;2022-07-23T00:20:44;101252.97;;;22.56;63.47
35918;BME280;22011;59.912;30.300;2022-07-23T00:23:13;101253.34;;;22.60;63.66
35918;BME280;22011;59.912;30.300;2022-07-23T00:25:41;101250.72;;;22.53;63.84
35918;BME280;22011;59.912;30.300;2022-07-23T00:28:08;101251.78;;;22.52;63.73
35918;BME280;22011;59.912;30.300;2022-07-23T00:30:36;101254.28;;;22.54;63.70
35918;BME280;22011;59.912;30.300;2022-07-23T00:33:06;101260.78;;;22.52;63.80
35918;BME280;22011;59.912;30.300;2022-07-23T00:35:36;101258.50;;;22.49;64.01
35918;BME280;22011;59.912;30.300;2022-07-23T00:38:04;101252.94;;;22.44;64.11
35918;BME280;22011;59.912;30.300;2022-07-23T00:40:33;101251.88;;;22.45;63.95
35918;BME280;22011;59.912;30.300;2022-07-23T00:43:01;101255.31;;;22.41;63.94
35918;BME280;22011;59.912;30.300;2022-07-23T00:45:29;101241.59;;;22.36;64.26
35918;BME280;22011;59.912;30.300;2022-07-23T00:47:57;101253.75;;;22.33;64.47
35918;BME280;22011;59.912;30.300;2022-07-23T00:50:25;101254.19;;;22.30;64.66
35918;BME280;22011;59.912;30.300;2022-07-23T00:52:54;101265.53;;;22.27;64.54
35918;BME280;22011;59.912;30.300;2022-07-23T00:55:22;101266.34;;;22.58;63.67
35918;BME280;22011;59.912;30.300;2022-07-23T00:57:52;101255.63;;;22.33;64.77
35918;BME280;22011;59.912;30.300;2022-07-23T01:00:20;101255.13;;;22.24;64.90
35918;BME280;22011;59.912;30.300;2022-07-23T01:02:48;101256.03;;;22.48;65.07
35918;BME280;22011;59.912;30.300;2022-07-23T01:05:16;101253.88;;;22.38;64.68
35918;BME280;22011;59.912;30.300;2022-07-23T01:07:48;101257.97;;;22.29;64.86
35918;BME280;22011;59.912;30.300;2022-07-23T01:10:15;101263.72;;;22.21;65.10
35918;BME280;22011;59.912;30.300;2022-07-23T01:13:00;101266.34;;;22.28;65.81
35918;BME280;22011;59.912;30.300;2022-07-23T01:15:29;101254.66;;;22.27;65.63
35918;BME280;22011;59.912;30.300;2022-07-23T01:17:56;101251.59;;;22.24;65.25
35918;BME280;22011;59.912;30.300;2022-07-23T01:20:24;101242.97;;;22.27;65.20
35918;BME280;22011;59.912;30.300;2022-07-23T01:22:55;101248.78;;;22.30;65.19
35918;BME280;22011;59.912;30.300;2022-07-23T01:25:23;101239.09;;;22.34;64.95
35918;BME280;22011;59.912;30.300;2022-07-23T01:27:57;101233.31;;;22.31;65.01
35918;BME280;22011;59.912;30.300;2022-07-23T01:30:24;101240.72;;;22.24;65.20
35918;BME280;22011;59.912;30.300;2022-07-23T01:32:53;101245.19;;;22.18;65.43
35918;BME280;22011;59.912;30.300;2022-07-23T01:35:21;101236.91;;;22.13;65.47
35918;BME280;22011;59.912;30.300;2022-07-23T01:37:50;101237.72;;;22.13;65.62
35918;BME280;22011;59.912;30.300;2022-07-23T01:40:21;101245.63;;;22.15;65.98
35918;BME280;22011;59.912;30.300;2022-07-23T01:42:48;101239.47;;;22.08;65.80
35918;BME280;22011;59.912;30.300;2022-07-23T01:45:17;101237.81;;;22.07;65.75
35918;BME280;22011;59.912;30.300;2022-07-23T01:47:49;101234.06;;;22.08;65.97
35918;BME280;22011;59.912;30.300;2022-07-23T01:50:17;101239.84;;;22.11;65.76
35918;BME280;22011;59.912;30.300;2022-07-23T01:52:57;101228.81;;;22.25;65.43
35918;BME280;22011;59.912;30.300;2022-07-23T01:55:26;101228.44;;;22.21;65.58
35918;BME280;22011;59.912;30.300;2022-07-23T01:57:53;101226.31;;;22.23;65.29
35918;BME280;22011;59.912;30.300;2022-07-23T02:00:27;101225.72;;;22.21;65.38
35918;BME280;22011;59.912;30.300;2022-07-23T02:02:54;101223.00;;;22.21;65.03
35918;BME280;22011;59.912;30.300;2022-07-23T02:05:22;101226.31;;;22.23;65.15
35918;BME280;22011;59.912;30.300;2022-07-23T02:07:50;101213.81;;;22.22;65.09
35918;BME280;22011;59.912;30.300;2022-07-23T02:10:17;101223.41;;;22.36;64.66
35918;BME280;22011;59.912;30.300;2022-07-23T02:12:46;101218.94;;;22.42;64.69
35918;BME280;22011;59.912;30.300;2022-07-23T02:15:14;101222.34;;;22.37;64.35
35918;BME280;22011;59.912;30.300;2022-07-23T02:17:42;101220.69;;;22.36;64.64
35918;BME280;22011;59.912;30.300;2022-07-23T02:20:10;101228.25;;;22.34;64.41
35918;BME280;22011;59.912;30.300;2022-07-23T02:22:38;101218.59;;;22.38;64.50
35918;BME280;22011;59.912;30.300;2022-07-23T02:25:09;101211.50;;;22.37;64.25
35918;BME280;22011;59.912;30.300;2022-07-23T02:27:38;101211.50;;;22.37;64.34
35918;BME280;22011;59.912;30.300;2022-07-23T02:30:08;101208.81;;;22.49;64.28
35918;BME280;22011;59.912;30.300;2022-07-23T02:32:36;101203.84;;;22.46;63.97
35918;BME280;22011;59.912;30.300;2022-07-23T02:35:06;101205.25;;;22.48;64.10
35918;BME280;22011;59.912;30.300;2022-07-23T02:37:34;101203.63;;;22.47;63.91
35918;BME280;22011;59.912;30.300;2022-07-23T02:40:02;101197.59;;;22.45;64.09
35918;BME280;22011;59.912;30.300;2022-07-23T02:42:31;101195.00;;;22.50;63.66
35918;BME280;22011;59.912;30.300;2022-07-23T02:44:59;101194.53;;;22.54;63.44
35918;BME280;22011;59.912;30.300;2022-07-23T02:47:28;101191.94;;;22.59;63.36
35918;BME280;22011;59.912;30.300;2022-07-23T02:50:00;101179.78;;;22.61;63.17
35918;BME280;22011;59.912;30.300;2022-07-23T02:52:29;101176.00;;;22.62;62.91
35918;BME280;22011;59.912;30.300;2022-07-23T02:54:56;101173.53;;;22.61;62.91
35918;BME280;22011;59.912;30.300;2022-07-23T02:57:24;101168.91;;;22.61;63.28
35918;BME280;22011;59.912;30.300;2022-07-23T02:59:51;101161.38;;;22.63;62.84
35918;BME280;22011;59.912;30.300;2022-07-23T03:02:19;101161.38;;;22.63;62.96
35918;BME280;22011;59.912;30.300;2022-07-23T03:04:49;101163.84;;;22.76;63.58
35918;BME280;22011;59.912;30.300;2022-07-23T03:07:17;101162.78;;;22.66;62.92
35918;BME280;22011;59.912;30.300;2022-07-23T03:09:45;101157.72;;;22.69;63.38
35918;BME280;22011;59.912;30.300;2022-07-23T03:12:13;101150.38;;;22.70;62.77
35918;BME280;22011;59.912;30.300;2022-07-23T03:14:40;101148.75;;;22.69;63.02
35918;BME280;22011;59.912;30.300;2022-07-23T03:17:09;101141.28;;;22.76;62.77
35918;BME280;22011;59.912;30.300;2022-07-23T03:19:36;101136.59;;;22.83;62.49
35918;BME280;22011;59.912;30.300;2022-07-23T03:22:06;101144.38;;;22.91;62.55
35918;BME280;22011;59.912;30.300;2022-07-23T03:24:34;101139.69;;;22.87;62.22
35918;BME280;22011;59.912;30.300;2022-07-23T03:27:19;101139.91;;;22.85;62.25
35918;BME280;22011;59.912;30.300;2022-07-23T03:29:48;101137.44;;;22.83;62.55
35918;BME280;22011;59.912;30.300;2022-07-23T03:32:16;101138.25;;;22.84;62.35
35918;BME280;22011;59.912;30.300;2022-07-23T03:34:44;101138.25;;;22.84;62.47
35918;BME280;22011;59.912;30.300;2022-07-23T03:37:13;101145.44;;;22.90;62.65
35918;BME280;22011;59.912;30.300;2022-07-23T03:39:41;101142.25;;;22.93;62.24
35918;BME280;22011;59.912;30.300;2022-07-23T03:42:09;101140.22;;;23.00;62.10
35918;BME280;22011;59.912;30.300;2022-07-23T03:44:37;101132.28;;;23.22;61.97
35918;BME280;22011;59.912;30.300;2022-07-23T03:47:06;101130.59;;;23.33;61.17
35918;BME280;22011;59.912;30.300;2022-07-23T03:49:33;101123.59;;;23.37;60.76
35918;BME280;22011;59.912;30.300;2022-07-23T03:52:01;101124.56;;;23.31;60.81
35918;BME280;22011;59.912;30.300;2022-07-23T03:54:32;101125.75;;;23.35;61.00
35918;BME280;22011;59.912;30.300;2022-07-23T03:56:59;101127.41;;;23.36;60.88
35918;BME280;22011;59.912;30.300;2022-07-23T03:59:27;101117.94;;;23.38;60.96
35918;BME280;22011;59.912;30.300;2022-07-23T04:01:55;101112.97;;;23.35;60.91
35918;BME280;22011;59.912;30.300;2022-07-23T04:04:22;101117.34;;;23.36;61.02
35918;BME280;22011;59.912;30.300;2022-07-23T04:06:50;101117.94;;;23.38;60.78
35918;BME280;22011;59.912;30.300;2022-07-23T04:09:18;101123.13;;;23.40;60.73
35918;BME280;22011;59.912;30.300;2022-07-23T04:11:47;101128.78;;;23.50;60.64
35918;BME280;22011;59.912;30.300;2022-07-23T04:14:16;101121.69;;;23.49;60.62
35918;BME280;22011;59.912;30.300;2022-07-23T04:16:44;101119.91;;;23.55;60.54
35918;BME280;22011;59.912;30.300;2022-07-23T04:19:11;101117.53;;;23.58;60.16
35918;BME280;22011;59.912;30.300;2022-07-23T04:21:56;101104.13;;;23.68;59.91
35918;BME280;22011;59.912;30.300;2022-07-23T04:24:24;101098.88;;;23.78;59.39
35918;BME280;22011;59.912;30.300;2022-07-23T04:26:53;101100.88;;;23.83;59.71
35918;BME280;22011;59.912;30.300;2022-07-23T04:29:22;101094.00;;;23.97;59.73
35918;BME280;22011;59.912;30.300;2022-07-23T04:31:50;101095.75;;;23.87;59.26
35918;BME280;22011;59.912;30.300;2022-07-23T04:34:18;101094.19;;;23.91;59.10
35918;BME280;22011;59.912;30.300;2022-07-23T04:36:46;101087.75;;;23.97;59.06
35918;BME280;22011;59.912;30.300;2022-07-23T04:39:13;101089.47;;;24.03;58.93
35918;BME280;22011;59.912;30.300;2022-07-23T04:41:42;101087.94;;;24.07;58.72
35918;BME280;22011;59.912;30.300;2022-07-23T04:44:11;101092.28;;;24.08;58.79
35918;BME280;22011;59.912;30.300;2022-07-23T04:46:39;101078.59;;;24.20;58.41
35918;BME280;22011;59.912;30.300;2022-07-23T04:49:08;101074.47;;;24.17;58.38
35918;BME280;22011;59.912;30.300;2022-07-23T04:51:35;101068.53;;;24.20;58.34
35918;BME280;22011;59.912;30.300;2022-07-23T04:54:03;101070.19;;;24.21;58.34
35918;BME280;22011;59.912;30.300;2022-07-23T04:56:31;101066.41;;;24.22;58.25
35918;BME280;22011;59.912;30.300;2022-07-23T04:58:58;101055.13;;;24.30;58.08
35918;BME280;22011;59.912;30.300;2022-07-23T05:01:28;101059.81;;;24.35;58.24
35918;BME280;22011;59.912;30.300;2022-07-23T05:03:55;101061.22;;;24.37;58.00
35918;BME280;22011;59.912;30.300;2022-07-23T05:06:26;101048.09;;;24.34;58.10
35918;BME280;22011;59.912;30.300;2022-07-23T05:08:54;101048.44;;;24.38;58.13
35918;BME280;22011;59.912;30.300;2022-07-23T05:11:22;101048.69;;;24.36;58.29
35918;BME280;22011;59.912;30.300;2022-07-23T05:13:50;101042.31;;;24.48;57.83
35918;BME280;22011;59.912;30.300;2022-07-23T05:16:20;101037.44;;;24.50;57.72
35918;BME280;22011;59.912;30.300;2022-07-23T05:18:49;101042.34;;;24.69;57.75
35918;BME280;22011;59.912;30.300;2022-07-23T05:21:17;101037.97;;;24.68;57.36
35918;BME280;22011;59.912;30.300;2022-07-23T05:23:45;101037.16;;;24.68;57.29
35918;BME280;22011;59.912;30.300;2022-07-23T05:26:12;101035.31;;;24.73;57.43
35918;BME280;22011;59.912;30.300;2022-07-23T05:28:41;101033.81;;;24.83;57.62
35918;BME280;22011;59.912;30.300;2022-07-23T05:31:08;101028.72;;;24.91;56.90
35918;BME280;22011;59.912;30.300;2022-07-23T05:33:36;101036.22;;;25.01;56.97
35918;BME280;22011;59.912;30.300;2022-07-23T05:36:05;101024.59;;;25.10;56.80
35918;BME280;22011;59.912;30.300;2022-07-23T05:38:39;101022.44;;;25.13;56.33
35918;BME280;22011;59.912;30.300;2022-07-23T05:41:07;101027.41;;;25.16;56.29
35918;BME280;22011;59.912;30.300;2022-07-23T05:43:35;101014.84;;;25.15;56.30
35918;BME280;22011;59.912;30.300;2022-07-23T05:46:08;101012.78;;;25.27;55.87
35918;BME280;22011;59.912;30.300;2022-07-23T05:48:38;101013.50;;;25.66;55.51
35918;BME280;22011;59.912;30.300;2022-07-23T05:51:12;101017.91;;;25.45;55.58
35918;BME280;22011;59.912;30.300;2022-07-23T05:53:40;101006.72;;;25.47;55.50
35918;BME280;22011;59.912;30.300;2022-07-23T05:56:11;100999.94;;;25.49;55.58
35918;BME280;22011;59.912;30.300;2022-07-23T05:58:39;100997.78;;;25.51;55.28
35918;BME280;22011;59.912;30.300;2022-07-23T06:01:08;100999.19;;;25.59;55.29
35918;BME280;22011;59.912;30.300;2022-07-23T06:03:45;100988.09;;;25.65;55.17
35918;BME280;22011;59.912;30.300;2022-07-23T06:06:14;100988.72;;;25.72;55.25
35918;BME280;22011;59.912;30.300;2022-07-23T06:08:42;100988.50;;;25.79;54.98
35918;BME280;22011;59.912;30.300;2022-07-23T06:11:11;100983.81;;;25.74;54.94
35918;BME280;22011;59.912;30.300;2022-07-23T06:13:39;100987.16;;;25.82;54.90
35918;BME280;22011;59.912;30.300;2022-07-23T06:16:07;100981.78;;;25.92;54.81
35918;BME280;22011;59.912;30.300;2022-07-23T06:18:34;100978.53;;;25.95;54.39
35918;BME280;22011;59.912;30.300;2022-07-23T06:21:02;100979.09;;;25.97;54.28
35918;BME280;22011;59.912;30.300;2022-07-23T06:23:33;100977.75;;;25.99;54.53
35918;BME280;22011;59.912;30.300;2022-07-23T06:26:01;100973.66;;;26.07;54.18
35918;BME280;22011;59.912;30.300;2022-07-23T06:28:29;100966.88;;;26.15;53.61
35918;BME280;22011;59.912;30.300;2022-07-23T06:30:56;100961.75;;;26.23;53.54
35918;BME280;22011;59.912;30.300;2022-07-23T06:33:24;100969.16;;;26.28;52.81
35918;BME280;22011;59.912;30.300;2022-07-23T06:35:52;100959.63;;;26.30;52.69
35918;BME280;22011;59.912;30.300;2022-07-23T06:38:21;100963.53;;;26.45;52.41
35918;BME280;22011;59.912;30.300;2022-07-23T06:40:49;100962.47;;;26.51;52.34
35918;BME280;22011;59.912;30.300;2022-07-23T06:43:17;100957.63;;;26.63;52.05
35918;BME280;22011;59.912;30.300;2022-07-23T06:45:45;100967.25;;;26.81;51.14
35918;BME280;22011;59.912;30.300;2022-07-23T06:48:13;100952.53;;;26.87;51.17
35918;BME280;22011;59.912;30.300;2022-07-23T06:50:40;100954.97;;;26.88;51.09
35918;BME280;22011;59.912;30.300;2022-07-23T06:53:08;100948.72;;;26.93;51.05
35918;BME280;22011;59.912;30.300;2022-07-23T06:55:41;100948.47;;;27.04;51.11
35918;BME280;22011;59.912;30.300;2022-07-23T06:58:10;100950.94;;;27.11;50.90
35918;BME280;22011;59.912;30.300;2022-07-23T07:00:39;100939.72;;;27.13;49.69
35918;BME280;22011;59.912;30.300;2022-07-23T07:03:06;100943.84;;;27.20;49.27
35918;BME280;22011;59.912;30.300;2022-07-23T07:05:34;100931.53;;;27.18;49.66
35918;BME280;22011;59.912;30.300;2022-07-23T07:08:01;100944.41;;;27.38;49.48
35918;BME280;22011;59.912;30.300;2022-07-23T07:10:29;100939.75;;;27.38;49.09
35918;BME280;22011;59.912;30.300;2022-07-23T07:12:57;100941.41;;;27.44;49.10
35918;BME280;22011;59.912;30.300;2022-07-23T07:15:26;100934.56;;;27.52;48.91
35918;BME280;22011;59.912;30.300;2022-07-23T07:17:53;100933.22;;;27.54;48.66
35918;BME280;22011;59.912;30.300;2022-07-23T07:20:21;100928.84;;;27.68;47.02
35918;BME280;22011;59.912;30.300;2022-07-23T07:22:49;100930.50;;;27.80;46.87
35918;BME280;22011;59.912;30.300;2022-07-23T07:25:17;100925.28;;;27.78;47.18
35918;BME280;22011;59.912;30.300;2022-07-23T07:27:45;100925.56;;;27.77;47.04
35918;BME280;22011;59.912;30.300;2022-07-23T07:30:13;100932.41;;;27.79;46.92
35918;BME280;22011;59.912;30.300;2022-07-23T07:32:42;100939.78;;;27.89;47.22
35918;BME280;22011;59.912;30.300;2022-07-23T07:35:10;100935.41;;;27.93;47.26
35918;BME280;22011;59.912;30.300;2022-07-23T07:37:38;100935.38;;;28.03;46.64
35918;BME280;22011;59.912;30.300;2022-07-23T07:40:06;100931.50;;;28.14;46.73
35918;BME280;22011;59.912;30.300;2022-07-23T07:42:34;100924.66;;;28.22;46.63
35918;BME280;22011;59.912;30.300;2022-07-23T07:45:02;100928.22;;;28.22;46.65
35918;BME280;22011;59.912;30.300;2022-07-23T07:47:29;100929.31;;;28.26;46.51
35918;BME280;22011;59.912;30.300;2022-07-23T07:49:58;100929.81;;;28.33;46.63
35918;BME280;22011;59.912;30.300;2022-07-23T07:52:27;100927.38;;;28.32;46.08
35918;BME280;22011;59.912;30.300;2022-07-23T07:54:54;100925.16;;;28.34;46.69
35918;BME280;22011;59.912;30.300;2022-07-23T07:57:22;100924.06;;;28.35;47.19
35918;BME280;22011;59.912;30.300;2022-07-23T07:59:49;100933.25;;;28.70;46.42
35918;BME280;22011;59.912;30.300;2022-07-23T08:02:17;100935.13;;;28.79;46.52
35918;BME280;22011;59.912;30.300;2022-07-23T08:04:44;100934.31;;;28.84;46.67
35918;BME280;22011;59.912;30.300;2022-07-23T08:07:13;100935.66;;;28.81;46.75
35918;BME280;22011;59.912;30.300;2022-07-23T08:09:41;100931.84;;;28.82;46.67
35918;BME280;22011;59.912;30.300;2022-07-23T08:12:09;100926.88;;;28.89;46.79
35918;BME280;22011;59.912;30.300;2022-07-23T08:14:36;100932.28;;;29.00;46.87
35918;BME280;22011;59.912;30.300;2022-07-23T08:17:04;100931.44;;;29.04;46.60
35918;BME280;22011;59.912;30.300;2022-07-23T08:19:31;100929.78;;;29.08;46.22
35918;BME280;22011;59.912;30.300;2022-07-23T08:21:59;100927.78;;;29.14;45.82
35918;BME280;22011;59.912;30.300;2022-07-23T08:24:28;100928.81;;;29.23;45.87
35918;BME280;22011;59.912;30.300;2022-07-23T08:26:55;100925.78;;;29.24;45.95
35918;BME280;22011;59.912;30.300;2022-07-23T08:29:23;100925.56;;;29.16;46.27
35918;BME280;22011;59.912;30.300;2022-07-23T08:31:50;100920.09;;;29.16;46.52
35918;BME280;22011;59.912;30.300;2022-07-23T08:34:18;100918.41;;;29.20;46.32
35918;BME280;22011;59.912;30.300;2022-07-23T08:36:45;100918.59;;;29.34;45.71
35918;BME280;22011;59.912;30.300;2022-07-23T08:39:13;100924.66;;;29.30;45.42
35918;BME280;22011;59.912;30.300;2022-07-23T08:41:42;100918.81;;;29.42;45.33
35918;BME280;22011;59.912;30.300;2022-07-23T08:44:10;100916.13;;;29.32;45.23
35918;BME280;22011;59.912;30.300;2022-07-23T08:46:39;100925.44;;;29.36;45.06
35918;BME280;22011;59.912;30.300;2022-07-23T08:49:06;100917.44;;;29.45;44.78
35918;BME280;22011;59.912;30.300;2022-07-23T08:51:34;100910.25;;;29.49;44.69
35918;BME280;22011;59.912;30.300;2022-07-23T08:54:02;100920.38;;;29.53;44.16
35918;BME280;22011;59.912;30.300;2022-07-23T08:56:31;100905.34;;;29.75;44.01
35918;BME280;22011;59.912;30.300;2022-07-23T08:59:00;100907.72;;;29.86;44.15
35918;BME280;22011;59.912;30.300;2022-07-23T09:01:28;100913.25;;;29.81;44.09
35918;BME280;22011;59.912;30.300;2022-07-23T09:03:55;100912.59;;;29.66;44.53
35918;BME280;22011;59.912;30.300;2022-07-23T09:06:23;100906.06;;;29.56;44.91
35918;BME280;22011;59.912;30.300;2022-07-23T09:08:50;100919.66;;;29.43;44.85
35918;BME280;22011;59.912;30.300;2022-07-23T09:11:18;100910.63;;;29.32;44.94
35918;BME280;22011;59.912;30.300;2022-07-23T09:13:47;100905.63;;;29.44;44.73
35918;BME280;22011;59.912;30.300;2022-07-23T09:16:17;100905.75;;;29.92;44.42
35918;BME280;22011;59.912;30.300;2022-07-23T09:18:45;100907.38;;;29.93;44.25
35918;BME280;22011;59.912;30.300;2022-07-23T09:21:19;100910.69;;;29.61;44.11
35918;BME280;22011;59.912;30.300;2022-07-23T09:23:50;100912.53;;;29.71;42.36
35918;BME280;22011;59.912;30.300;2022-07-23T09:26:31;100906.56;;;30.16;41.97
35918;BME280;22011;59.912;30.300;2022-07-23T09:29:01;100898.50;;;30.25;41.62
35918;BME280;22011;59.912;30.300;2022-07-23T09:31:42;100904.50;;;30.51;41.67
35918;BME280;22011;59.912;30.300;2022-07-23T09:34:14;100883.94;;;30.24;41.52
35918;BME280;22011;59.912;30.300;2022-07-23T09:36:42;100889.19;;;30.02;41.50
35918;BME280;22011;59.912;30.300;2022-07-23T09:39:11;100889.34;;;30.11;41.87
35918;BME280;22011;59.912;30.300;2022-07-23T09:41:42;100891.72;;;30.17;41.12
35918;BME280;22011;59.912;30.300;2022-07-23T09:44:12;100890.50;;;30.29;41.17
35918;BME280;22011;59.912;30.300;2022-07-23T09:46:42;100889.25;;;30.40;39.87
35918;BME280;22011;59.912;30.300;2022-07-23T09:49:18;100890.47;;;30.10;40.75
35918;BME280;22011;59.912;30.300;2022-07-23T09:51:49;100889.94;;;29.79;41.49
35918;BME280;22011;59.912;30.300;2022-07-23T09:54:25;100886.44;;;29.73;42.48
35918;BME280;22011;59.912;30.300;2022-07-23T09:56:55;100877.75;;;29.27;43.05
35918;BME280;22011;59.912;30.300;2022-07-23T09:59:26;100884.41;;;29.16;43.45
35918;BME280;22011;59.912;30.300;2022-07-23T10:01:57;100878.91;;;29.21;43.49
35918;BME280;22011;59.912;30.300;2022-07-23T10:04:27;100877.75;;;29.27;43.46
35918;BME280;22011;59.912;30.300;2022-07-23T10:07:17;100871.31;;;29.47;42.72
35918;BME280;22011;59.912;30.300;2022-07-23T10:10:08;100863.63;;;29.73;42.55
35918;BME280;22011;59.912;30.300;2022-07-23T10:12:56;100854.22;;;30.08;41.44
35918;BME280;22011;59.912;30.300;2022-07-23T10:15:44;100845.00;;;30.17;40.94
35918;BME280;22011;59.912;30.300;2022-07-23T10:18:13;100856.91;;;30.32;40.28
35918;BME280;22011;59.912;30.300;2022-07-23T10:20:41;100847.25;;;30.34;39.32
35918;BME280;22011;59.912;30.300;2022-07-23T10:23:14;100853.84;;;30.57;38.82
35918;BME280;22011;59.912;30.300;2022-07-23T10:25:51;100850.56;;;30.55;39.08
35918;BME280;22011;59.912;30.300;2022-07-23T10:28:32;100842.72;;;30.67;38.66
35918;BME280;22011;59.912;30.300;2022-07-23T10:31:17;100845.16;;;30.87;38.54
35918;BME280;22011;59.912;30.300;2022-07-23T10:33:54;100852.22;;;30.94;38.53
35918;BME280;22011;59.912;30.300;2022-07-23T10:36:34;100850.44;;;30.65;39.28
35918;BME280;22011;59.912;30.300;2022-07-23T10:39:08;100861.00;;;30.15;39.85
35918;BME280;22011;59.912;30.300;2022-07-23T10:41:39;100854.31;;;29.98;39.70
35918;BME280;22011;59.912;30.300;2022-07-23T10:44:09;100858.44;;;30.00;39.68
35918;BME280;22011;59.912;30.300;2022-07-23T10:46:53;100854.16;;;30.32;39.61
35918;BME280;22011;59.912;30.300;2022-07-23T10:49:28;100863.81;;;30.10;39.57
35918;BME280;22011;59.912;30.300;2022-07-23T10:52:16;100861.53;;;30.36;40.21
35918;BME280;22011;59.912;30.300;2022-07-23T10:54:46;100855.19;;;30.17;39.20
35918;BME280;22011;59.912;30.300;2022-07-23T10:57:15;100860.25;;;30.29;39.16
35918;BME280;22011;59.912;30.300;2022-07-23T11:00:20;100865.41;;;30.54;39.06
35918;BME280;22011;59.912;30.300;2022-07-23T11:02:49;100866.66;;;30.43;38.97
35918;BME280;22011;59.912;30.300;2022-07-23T11:05:19;100865.38;;;30.59;39.13
35918;BME280;22011;59.912;30.300;2022-07-23T11:10:54;100862.66;;;30.35;39.08
35918;BME280;22011;59.912;30.300;2022-07-23T11:13:36;100861.25;;;30.38;39.56
35918;BME280;22011;59.912;30.300;2022-07-23T11:16:16;100894.56;;;30.12;39.70
35918;BME280;22011;59.912;30.300;2022-07-23T11:19:08;100903.44;;;29.75;42.99
35918;BME280;22011;59.912;30.300;2022-07-23T11:21:47;100904.66;;;28.91;46.56
35918;BME280;22011;59.912;30.300;2022-07-23T11:24:22;100924.66;;;28.22;48.62
35918;BME280;22011;59.912;30.300;2022-07-23T11:26:59;100923.06;;;27.95;48.97
35918;BME280;22011;59.912;30.300;2022-07-23T11:29:41;100930.50;;;27.80;49.61
35918;BME280;22011;59.912;30.300;2022-07-23T11:32:19;100931.28;;;27.55;50.03
35918;BME280;22011;59.912;30.300;2022-07-23T11:34:51;100923.59;;;27.21;50.84
35918;BME280;22011;59.912;30.300;2022-07-23T11:37:36;100914.03;;;27.34;50.78
35918;BME280;22011;59.912;30.300;2022-07-23T11:40:07;100913.44;;;26.91;52.97
35918;BME280;22011;59.912;30.300;2022-07-23T11:42:37;100912.28;;;26.67;54.16
35918;BME280;22011;59.912;30.300;2022-07-23T11:45:06;100920.97;;;26.59;54.60
35918;BME280;22011;59.912;30.300;2022-07-23T11:47:35;100925.50;;;26.33;55.54
35918;BME280;22011;59.912;30.300;2022-07-23T11:50:05;100933.84;;;26.16;56.80
35918;BME280;22011;59.912;30.300;2022-07-23T11:52:34;100933.75;;;25.96;58.32
35918;BME280;22011;59.912;30.300;2022-07-23T11:55:04;100943.72;;;25.75;58.53
35918;BME280;22011;59.912;30.300;2022-07-23T11:57:34;100940.53;;;25.56;59.39
35918;BME280;22011;59.912;30.300;2022-07-23T12:00:06;100937.06;;;25.34;58.64
35918;BME280;22011;59.912;30.300;2022-07-23T12:02:43;100956.00;;;25.19;59.62
35918;BME280;22011;59.912;30.300;2022-07-23T12:05:14;100940.75;;;25.50;57.21
35918;BME280;22011;59.912;30.300;2022-07-23T12:07:44;100942.25;;;25.08;59.88
35918;BME280;22011;59.912;30.300;2022-07-23T12:10:18;100959.19;;;24.89;60.78
35918;BME280;22011;59.912;30.300;2022-07-23T12:12:50;100960.34;;;24.71;61.69
35918;BME280;22011;59.912;30.300;2022-07-23T12:15:21;100972.78;;;24.62;62.05
35918;BME280;22011;59.912;30.300;2022-07-23T12:17:49;100973.41;;;24.69;62.41
35918;BME280;22011;59.912;30.300;2022-07-23T12:20:21;100949.97;;;24.68;64.50
35918;BME280;22011;59.912;30.300;2022-07-23T12:22:55;100955.47;;;24.73;64.47
35918;BME280;22011;59.912;30.300;2022-07-23T12:25:24;100946.72;;;24.71;64.90
35918;BME280;22011;59.912;30.300;2022-07-23T12:28:01;100934.22;;;24.97;64.24
35918;BME280;22011;59.912;30.300;2022-07-23T12:30:31;100911.13;;;25.04;62.13
35918;BME280;22011;59.912;30.300;2022-07-23T12:33:00;100899.19;;;25.10;61.81
35918;BME280;22011;59.912;30.300;2022-07-23T12:35:33;100908.03;;;25.23;60.30
35918;BME280;22011;59.912;30.300;2022-07-23T12:38:04;100923.16;;;25.35;60.10
35918;BME280;22011;59.912;30.300;2022-07-23T12:40:33;100904.41;;;25.44;59.91
35918;BME280;22011;59.912;30.300;2022-07-23T12:43:03;100905.63;;;25.58;57.41
35918;BME280;22011;59.912;30.300;2022-07-23T12:45:44;100897.28;;;26.22;56.19
35918;BME280;22011;59.912;30.300;2022-07-23T12:48:17;100888.31;;;25.74;56.10
35918;BME280;22011;59.912;30.300;2022-07-23T12:50:50;100881.69;;;25.65;57.57
35918;BME280;22011;59.912;30.300;2022-07-23T12:53:21;100873.91;;;25.52;57.71
35918;BME280;22011;59.912;30.300;2022-07-23T12:55:50;100884.84;;;25.52;58.25
35918;BME280;22011;59.912;30.300;2022-07-23T12:58:19;100897.13;;;25.55;57.01